メインページ
METAR-TAF:

METAR-TAF

空港 :

マシュハド国際空港

マシュハド, イラン

緯度: 36-16N, 経度: 059-38E, 海抜: 989m

現時点の気象観測

当レポートは20分前の07:00(UTC)に作成
西/北西の風 6kt
気温 14°C
湿度 36%
気圧 1020 hPa
視程10km以上
1,500メートル以下は雲なし、積乱雲なし

METAR: OIMM 130700Z 30006KT CAVOK 14/M01 Q1019 A3012

時間: 10:50 (07:20 UTC)

予報

当レポートは1時間50分前の05:30(UTC)に作成
予報は13日の 06時(UTC)から 14日の 12時(UTC)まで有効
南/南西の風 8kt
視程: 8000m
13日の 08時(UTC)から 13日の 09時(UTC)まで徐々に
西/北西の風 14kt
14日の 00時(UTC)から 14日の 02時(UTC)まで徐々に
北東の風 8kt
14日の 11時(UTC)から 14日の 12時(UTC)まで一時的に
東/南東の風 14kt

TAF: OIMM 130530Z 1306/1412 20004MPS 8000 NSC BECMG 1308/1309 30007MPS BECMG 1400/1402 05004MPS TEMPO 1411/1412 11007MPS

4,000以上の空港の気象観測と天気予報(METAR報とTAF報)

利用可能な観測所は地図上に黄色い丸と赤い丸で示す。

丸の上にカーソルを重ねると観測所名を参照できる。

次にクリックすると気象観測と天気予報を参照できる。

マップの切り替え:黒色「×」印の緑ボタンをクリックして拡大、「-」印の緑ボタンをクリックして縮小、緑色の三角印をクリックして隣りの地図に切り替え


METAR-TAF: